createdAt,value
2024-03-12T00:02:08.487Z,15.86
2024-03-12T00:04:41.976Z,15.87
2024-03-12T00:07:14.958Z,15.85
2024-03-12T00:09:48.170Z,15.87
2024-03-12T00:12:20.797Z,15.88
2024-03-12T00:14:54.845Z,15.85
2024-03-12T00:17:27.637Z,15.84
2024-03-12T00:20:00.750Z,15.84
2024-03-12T00:22:34.644Z,15.82
2024-03-12T00:25:09.492Z,15.84
2024-03-12T00:27:42.247Z,15.85
2024-03-12T00:30:16.863Z,15.82
2024-03-12T00:32:50.376Z,15.79
2024-03-12T00:35:24.847Z,15.77
2024-03-12T00:37:59.078Z,15.76
2024-03-12T00:40:34.606Z,15.76
2024-03-12T00:43:08.503Z,15.78
2024-03-12T00:45:43.491Z,15.74
2024-03-12T00:48:16.969Z,15.75
2024-03-12T00:50:49.580Z,15.74
2024-03-12T00:53:22.221Z,15.70
2024-03-12T00:55:55.367Z,15.71
2024-03-12T00:58:29.605Z,15.69
2024-03-12T01:01:04.985Z,15.70
2024-03-12T01:03:38.143Z,15.72
2024-03-12T01:06:12.704Z,15.70
2024-03-12T01:08:47.364Z,15.69
2024-03-12T01:11:20.130Z,15.72
2024-03-12T01:13:54.124Z,15.71
2024-03-12T01:16:30.098Z,15.71
2024-03-12T01:19:03.548Z,15.72
2024-03-12T01:21:36.395Z,15.72
2024-03-12T01:24:09.660Z,15.72
2024-03-12T01:26:43.156Z,15.67
2024-03-12T01:29:17.947Z,15.68
2024-03-12T01:31:53.584Z,15.69
2024-03-12T01:34:26.788Z,15.68
2024-03-12T01:36:59.452Z,15.65
2024-03-12T01:39:39.740Z,15.63
2024-03-12T01:42:13.057Z,15.65
2024-03-12T01:44:46.577Z,15.66
2024-03-12T01:47:20.762Z,15.69
2024-03-12T01:49:53.799Z,15.66
2024-03-12T01:52:26.815Z,15.65
2024-03-12T01:54:59.551Z,15.66
2024-03-12T01:57:34.036Z,15.64
2024-03-12T02:00:11.578Z,15.63
2024-03-12T02:02:46.755Z,15.64
2024-03-12T02:05:19.407Z,15.64
2024-03-12T02:07:54.499Z,15.65
2024-03-12T02:10:27.439Z,15.63
2024-03-12T02:13:00.247Z,15.63
2024-03-12T02:15:35.363Z,15.63
2024-03-12T02:18:09.952Z,15.62
2024-03-12T02:20:42.944Z,15.61
2024-03-12T02:23:15.637Z,15.56
2024-03-12T02:25:49.655Z,15.62
2024-03-12T02:28:22.554Z,15.63
2024-03-12T02:30:55.518Z,15.64
2024-03-12T02:33:28.438Z,15.63
2024-03-12T02:36:01.362Z,15.60
2024-03-12T02:38:37.750Z,15.60
2024-03-12T02:41:12.301Z,15.62
2024-03-12T02:43:45.269Z,15.62
2024-03-12T02:46:18.594Z,15.61
2024-03-12T02:48:52.713Z,15.61
2024-03-12T02:51:27.446Z,15.57
2024-03-12T02:54:00.901Z,15.55
2024-03-12T02:56:35.061Z,15.55
2024-03-12T02:59:10.055Z,15.55
2024-03-12T03:01:42.968Z,15.55
2024-03-12T03:04:15.660Z,15.52
2024-03-12T03:06:51.564Z,15.53
2024-03-12T03:09:24.531Z,15.55
2024-03-12T03:11:58.688Z,15.57
2024-03-12T03:14:31.327Z,15.56
2024-03-12T03:17:04.018Z,15.58
2024-03-12T03:19:36.790Z,15.58
2024-03-12T03:22:09.658Z,15.57
2024-03-12T03:24:42.367Z,15.58
2024-03-12T03:27:16.713Z,15.59
2024-03-12T03:29:49.455Z,15.58
2024-03-12T03:32:24.657Z,15.54
2024-03-12T03:34:57.314Z,15.55
2024-03-12T03:37:36.012Z,15.55
2024-03-12T03:40:11.357Z,15.55
2024-03-12T03:42:45.732Z,15.55
2024-03-12T03:45:19.193Z,15.53
2024-03-12T03:47:52.702Z,15.52
2024-03-12T03:50:25.912Z,15.50
2024-03-12T03:52:58.702Z,15.47
2024-03-12T03:55:32.038Z,15.45
2024-03-12T03:58:07.583Z,15.49
2024-03-12T04:00:40.995Z,15.52
2024-03-12T04:03:14.146Z,15.52
2024-03-12T04:05:48.420Z,15.51
2024-03-12T04:08:21.757Z,15.53
2024-03-12T04:10:54.733Z,15.49
2024-03-12T04:13:29.087Z,15.52
2024-03-12T04:16:02.081Z,15.51
2024-03-12T04:18:37.464Z,15.51
2024-03-12T04:21:10.383Z,15.53
2024-03-12T04:23:44.223Z,15.51
2024-03-12T04:26:17.004Z,15.52
2024-03-12T04:28:51.061Z,15.52
2024-03-12T04:31:24.208Z,15.49
2024-03-12T04:33:57.043Z,15.51
2024-03-12T04:36:29.809Z,15.51
2024-03-12T04:39:02.459Z,15.50
2024-03-12T04:41:35.225Z,15.52
2024-03-12T04:44:09.293Z,15.49
2024-03-12T04:46:44.829Z,15.48
2024-03-12T04:49:17.882Z,15.51
2024-03-12T04:51:51.754Z,15.44
2024-03-12T04:54:24.684Z,15.44
2024-03-12T04:56:58.294Z,15.40
2024-03-12T04:59:32.369Z,15.42
2024-03-12T05:02:05.257Z,15.42
2024-03-12T05:04:38.086Z,15.47
2024-03-12T05:07:12.993Z,15.46
2024-03-12T05:09:45.866Z,15.46
2024-03-12T05:12:18.557Z,15.48
2024-03-12T05:14:52.590Z,15.45
2024-03-12T05:17:25.469Z,15.45
2024-03-12T05:19:58.218Z,15.47
2024-03-12T05:22:30.899Z,15.48
2024-03-12T05:25:04.072Z,15.46
2024-03-12T05:27:39.098Z,15.46
2024-03-12T05:30:16.418Z,15.43
2024-03-12T05:32:50.532Z,15.44
2024-03-12T05:35:24.463Z,15.43
2024-03-12T05:38:04.991Z,15.45
2024-03-12T05:40:48.068Z,15.44
2024-03-12T05:43:50.532Z,15.44
2024-03-12T05:46:42.614Z,15.44
2024-03-12T05:49:16.457Z,15.43
2024-03-12T05:51:49.402Z,15.42
2024-03-12T05:54:22.534Z,15.42
2024-03-12T05:56:55.355Z,15.41
2024-03-12T05:59:28.532Z,15.41
2024-03-12T06:02:02.640Z,15.41
2024-03-12T06:04:35.789Z,15.39
2024-03-12T06:07:08.970Z,15.41
2024-03-12T06:09:42.011Z,15.40
2024-03-12T06:12:14.715Z,15.39
2024-03-12T06:14:47.713Z,15.39
2024-03-12T06:17:21.846Z,15.37
2024-03-12T06:19:54.981Z,15.35
2024-03-12T06:22:27.780Z,15.33
2024-03-12T06:25:00.822Z,15.38
2024-03-12T06:27:33.996Z,15.38
2024-03-12T06:30:07.395Z,15.38
2024-03-12T06:32:41.493Z,15.39
2024-03-12T06:35:14.152Z,15.41
2024-03-12T06:37:46.976Z,15.41
2024-03-12T06:40:21.875Z,15.37
2024-03-12T06:42:54.652Z,15.34
2024-03-12T06:45:27.840Z,15.35
2024-03-12T06:48:02.759Z,15.39
2024-03-12T06:50:36.122Z,15.37
2024-03-12T06:53:08.939Z,15.38
2024-03-12T06:55:41.768Z,15.41
2024-03-12T06:58:20.014Z,15.39
2024-03-12T07:00:53.276Z,15.40
2024-03-12T07:03:30.216Z,15.41
2024-03-12T07:06:04.287Z,15.40
2024-03-12T07:08:40.169Z,15.40
2024-03-12T07:11:13.345Z,15.40
2024-03-12T07:13:49.950Z,15.38
2024-03-12T07:16:22.888Z,15.38
2024-03-12T07:18:57.152Z,15.42
2024-03-12T07:21:29.890Z,15.44
2024-03-12T07:24:05.005Z,15.39
2024-03-12T07:26:38.482Z,15.39
2024-03-12T07:29:11.377Z,15.42
2024-03-12T07:31:44.123Z,15.39
2024-03-12T07:34:18.766Z,15.39
2024-03-12T07:36:51.675Z,15.36
2024-03-12T07:39:32.411Z,15.38
2024-03-12T07:42:13.501Z,15.40
2024-03-12T07:44:49.429Z,15.44
2024-03-12T07:47:22.077Z,15.44
2024-03-12T07:49:56.209Z,15.47
2024-03-12T07:52:28.993Z,15.49
2024-03-12T07:55:03.458Z,15.49
2024-03-12T07:57:37.097Z,15.47
2024-03-12T08:00:16.423Z,15.47
2024-03-12T08:02:49.381Z,15.53
2024-03-12T08:05:24.645Z,15.52
2024-03-12T08:07:57.566Z,15.53
2024-03-12T08:10:30.410Z,15.53
2024-03-12T08:13:06.402Z,15.54
2024-03-12T08:15:39.231Z,15.56
2024-03-12T08:18:17.683Z,15.56
2024-03-12T08:20:55.740Z,15.57
2024-03-12T08:23:28.372Z,15.55
2024-03-12T08:26:02.354Z,15.56
2024-03-12T08:28:35.837Z,15.56
2024-03-12T08:31:14.753Z,15.60
2024-03-12T08:33:56.355Z,15.58
2024-03-12T08:36:30.476Z,15.59
2024-03-12T08:39:04.028Z,15.62
2024-03-12T08:41:36.864Z,15.64
2024-03-12T08:44:10.615Z,15.64
2024-03-12T08:46:43.329Z,15.66
2024-03-12T08:49:16.827Z,15.66
2024-03-12T08:51:51.641Z,15.66
2024-03-12T08:54:24.457Z,15.66
2024-03-12T08:56:57.389Z,15.67
2024-03-12T08:59:30.540Z,15.66
2024-03-12T09:02:04.119Z,15.67
2024-03-12T09:04:36.852Z,15.66
2024-03-12T09:07:11.108Z,15.68
2024-03-12T09:09:44.382Z,15.68
2024-03-12T09:12:17.121Z,15.70
2024-03-12T09:14:49.767Z,15.69
2024-03-12T09:17:22.995Z,15.72
2024-03-12T09:19:55.992Z,15.75
2024-03-12T09:22:30.053Z,15.74
2024-03-12T09:25:02.952Z,15.78
2024-03-12T09:27:36.102Z,15.83
2024-03-12T09:30:11.283Z,15.84
2024-03-12T09:32:45.222Z,15.85
2024-03-12T09:35:19.989Z,15.88
2024-03-12T09:37:54.091Z,15.93
2024-03-12T09:40:27.048Z,15.95
2024-03-12T09:43:01.792Z,15.99
2024-03-12T09:45:34.737Z,16.05
2024-03-12T09:48:09.547Z,16.08
2024-03-12T09:50:43.198Z,16.10
2024-03-12T09:53:19.120Z,16.14
2024-03-12T09:55:52.205Z,16.17
2024-03-12T09:58:25.464Z,16.23
2024-03-12T10:00:58.169Z,16.23
2024-03-12T10:03:31.324Z,16.25
2024-03-12T10:06:04.681Z,16.27
2024-03-12T10:08:40.190Z,16.29
2024-03-12T10:11:20.467Z,16.35
2024-03-12T10:13:58.027Z,16.45
2024-03-12T10:16:33.921Z,16.52
2024-03-12T10:19:10.757Z,16.58
2024-03-12T10:21:46.013Z,16.64
2024-03-12T10:24:22.872Z,16.67
2024-03-12T10:27:02.980Z,16.70
2024-03-12T10:29:36.768Z,16.74
2024-03-12T10:32:19.640Z,16.77
2024-03-12T10:34:53.348Z,16.80
2024-03-12T10:37:26.828Z,16.81
2024-03-12T10:40:14.331Z,16.84
2024-03-12T10:42:54.673Z,16.89
2024-03-12T10:45:28.435Z,16.93
2024-03-12T10:48:02.303Z,16.95
2024-03-12T10:50:35.551Z,16.97
2024-03-12T10:53:09.056Z,17.00
2024-03-12T10:55:43.745Z,17.04
2024-03-12T10:58:16.984Z,17.06
2024-03-12T11:00:50.145Z,17.08
2024-03-12T11:03:25.235Z,17.10
2024-03-12T11:06:00.797Z,17.15
2024-03-12T11:08:33.720Z,17.17
2024-03-12T11:11:10.237Z,17.21
2024-03-12T11:13:43.889Z,17.27
2024-03-12T11:16:19.069Z,17.30
2024-03-12T11:18:52.299Z,17.31
2024-03-12T11:21:25.847Z,17.35
2024-03-12T11:23:59.055Z,17.37
2024-03-12T11:26:37.031Z,17.38
2024-03-12T11:29:12.230Z,17.45
2024-03-12T11:31:45.753Z,17.49
2024-03-12T11:34:32.888Z,17.52
2024-03-12T11:37:14.527Z,17.56
2024-03-12T11:39:47.391Z,17.58
2024-03-12T11:42:22.027Z,17.60
2024-03-12T11:44:56.097Z,17.63
2024-03-12T11:47:33.286Z,17.68
2024-03-12T11:50:09.036Z,17.70
2024-03-12T11:52:44.309Z,17.74
2024-03-12T11:55:42.178Z,17.76
2024-03-12T11:58:17.424Z,17.79
2024-03-12T12:00:53.757Z,17.83
2024-03-12T12:03:26.515Z,17.84
2024-03-12T12:05:59.544Z,17.86
2024-03-12T12:08:37.484Z,17.89
2024-03-12T12:11:12.578Z,17.94
2024-03-12T12:13:48.680Z,17.97
2024-03-12T12:16:21.736Z,17.98
2024-03-12T12:18:54.509Z,17.99
2024-03-12T12:21:27.180Z,18.01
2024-03-12T12:24:04.189Z,18.02
2024-03-12T12:26:40.082Z,18.02
2024-03-12T12:29:15.882Z,18.04
2024-03-12T12:31:51.920Z,18.02
2024-03-12T12:34:26.595Z,18.02
2024-03-12T12:37:01.166Z,17.99
2024-03-12T12:39:43.784Z,17.88
2024-03-12T12:42:25.528Z,17.77
2024-03-12T12:45:06.193Z,17.90
2024-03-12T12:47:39.431Z,17.87
2024-03-12T12:50:12.632Z,17.75
2024-03-12T12:52:45.345Z,17.91
2024-03-12T12:55:19.143Z,18.03
2024-03-12T12:57:59.661Z,17.95
2024-03-12T13:00:37.575Z,17.94
2024-03-12T13:03:21.880Z,18.03
2024-03-12T13:06:12.177Z,18.03
2024-03-12T13:08:46.138Z,18.00
2024-03-12T13:11:19.832Z,17.73
2024-03-12T13:13:52.877Z,17.64
2024-03-12T13:16:27.234Z,17.97
2024-03-12T13:19:00.085Z,17.75
2024-03-12T13:21:34.682Z,17.67
2024-03-12T13:24:07.619Z,17.50
2024-03-12T13:26:40.569Z,17.81
2024-03-12T13:29:13.307Z,17.87
2024-03-12T13:31:47.885Z,17.96
2024-03-12T13:34:20.835Z,18.14
2024-03-12T13:36:54.117Z,18.14
2024-03-12T13:39:28.250Z,18.13
2024-03-12T13:42:00.958Z,18.20
2024-03-12T13:44:33.709Z,18.18
2024-03-12T13:47:08.109Z,18.18
2024-03-12T13:49:41.439Z,18.13
2024-03-12T13:52:14.221Z,18.10
2024-03-12T13:54:46.993Z,18.09
2024-03-12T13:57:19.921Z,18.09
2024-03-12T13:59:52.665Z,18.09
2024-03-12T14:02:26.856Z,18.07
2024-03-12T14:05:00.959Z,18.07
2024-03-12T14:07:36.047Z,18.08
2024-03-12T14:10:09.766Z,18.05
2024-03-12T14:12:42.884Z,18.05
2024-03-12T14:15:17.216Z,18.03
2024-03-12T14:17:54.099Z,18.01
2024-03-12T14:20:30.271Z,18.05
2024-03-12T14:23:03.158Z,18.03
2024-03-12T14:25:38.026Z,18.00
2024-03-12T14:28:12.112Z,18.00
2024-03-12T14:30:46.211Z,18.00
2024-03-12T14:33:20.917Z,17.98
2024-03-12T14:35:53.740Z,17.97
2024-03-12T14:38:26.544Z,18.02
2024-03-12T14:40:59.308Z,18.01
2024-03-12T14:43:32.579Z,17.83
2024-03-12T14:46:05.968Z,17.95
2024-03-12T14:48:40.191Z,17.76
2024-03-12T14:51:12.989Z,17.50
2024-03-12T14:53:45.689Z,17.78
2024-03-12T14:56:18.553Z,17.93
2024-03-12T14:58:51.459Z,17.90
2024-03-12T15:01:24.415Z,17.94
2024-03-12T15:03:59.341Z,17.97
2024-03-12T15:06:33.614Z,17.95
2024-03-12T15:09:06.878Z,17.79
2024-03-12T15:11:39.709Z,17.78
2024-03-12T15:14:13.302Z,17.79
2024-03-12T15:16:47.313Z,17.69
2024-03-12T15:19:21.642Z,17.67
2024-03-12T15:21:54.774Z,17.68
2024-03-12T15:24:27.470Z,17.42
2024-03-12T15:27:00.212Z,17.16
2024-03-12T15:29:33.708Z,17.45
2024-03-12T15:32:07.088Z,17.81
2024-03-12T15:34:41.225Z,17.72
2024-03-12T15:37:14.008Z,17.74
2024-03-12T15:39:46.800Z,17.72
2024-03-12T15:42:19.785Z,17.58
2024-03-12T15:44:52.900Z,17.04
2024-03-12T15:47:25.758Z,16.99
2024-03-12T15:50:00.047Z,17.16
2024-03-12T15:52:33.559Z,16.67
2024-03-12T15:55:09.213Z,16.96
2024-03-12T15:57:43.389Z,17.21
2024-03-12T16:00:16.972Z,17.13
2024-03-12T16:02:52.164Z,17.80
2024-03-12T16:05:26.384Z,17.84
2024-03-12T16:08:01.510Z,17.82
2024-03-12T16:10:34.555Z,17.72
2024-03-12T16:13:08.407Z,17.06
2024-03-12T16:15:41.189Z,17.55
2024-03-12T16:18:13.923Z,17.74
2024-03-12T16:20:48.283Z,17.74
2024-03-12T16:23:20.951Z,17.72
2024-03-12T16:25:53.646Z,17.73
2024-03-12T16:28:26.641Z,17.69
2024-03-12T16:30:59.489Z,17.68
2024-03-12T16:33:32.300Z,17.66
2024-03-12T16:36:09.776Z,17.90
2024-03-12T16:38:43.042Z,17.79
2024-03-12T16:41:16.094Z,17.73
2024-03-12T16:43:49.025Z,17.71
2024-03-12T16:46:21.942Z,17.73
2024-03-12T16:48:54.684Z,17.75
2024-03-12T16:51:29.187Z,17.74
2024-03-12T16:54:03.640Z,17.71
2024-03-12T16:56:38.715Z,17.67
2024-03-12T16:59:12.145Z,17.65
2024-03-12T17:01:47.993Z,17.55
2024-03-12T17:04:21.463Z,17.59
2024-03-12T17:06:59.211Z,17.53
2024-03-12T17:09:32.779Z,17.48
2024-03-12T17:12:06.712Z,17.47
2024-03-12T17:14:39.835Z,17.44
2024-03-12T17:17:13.514Z,17.45
2024-03-12T17:19:46.307Z,17.46
2024-03-12T17:22:21.583Z,17.43
2024-03-12T17:24:54.962Z,17.45
2024-03-12T17:27:30.504Z,17.45
2024-03-12T17:30:03.551Z,17.43
2024-03-12T17:32:37.047Z,17.44
2024-03-12T17:35:12.534Z,17.43
2024-03-12T17:37:48.593Z,17.37
2024-03-12T17:40:23.501Z,17.37
2024-03-12T17:42:56.779Z,17.35
2024-03-12T17:45:31.332Z,17.35
2024-03-12T17:48:05.933Z,17.33
2024-03-12T17:50:39.647Z,17.30
2024-03-12T17:53:14.104Z,17.31
2024-03-12T17:55:48.883Z,17.30
2024-03-12T17:58:23.717Z,17.28
2024-03-12T18:00:57.864Z,17.31
2024-03-12T18:03:31.176Z,17.25
2024-03-12T18:06:07.562Z,17.31
2024-03-12T18:08:46.962Z,17.33
2024-03-12T18:11:21.476Z,17.32
2024-03-12T18:13:54.474Z,17.31
2024-03-12T18:16:27.210Z,17.31
2024-03-12T18:19:00.273Z,17.31
2024-03-12T18:21:33.260Z,17.30
2024-03-12T18:24:10.380Z,17.30
2024-03-12T18:26:43.850Z,17.28
2024-03-12T18:29:17.478Z,17.28
2024-03-12T18:31:50.427Z,17.27
2024-03-12T18:34:23.431Z,17.25
2024-03-12T18:36:56.296Z,17.27
2024-03-12T18:39:31.734Z,17.28
2024-03-12T18:42:06.902Z,17.25
2024-03-12T18:44:39.645Z,17.25
2024-03-12T18:47:13.223Z,17.23
2024-03-12T18:49:46.591Z,17.21
2024-03-12T18:52:19.634Z,17.22
2024-03-12T18:54:55.005Z,17.20
2024-03-12T18:57:28.263Z,17.20
2024-03-12T19:00:02.089Z,17.17
2024-03-12T19:02:35.414Z,17.18
2024-03-12T19:05:09.967Z,17.16
2024-03-12T19:07:44.617Z,17.16
2024-03-12T19:10:20.170Z,17.16
2024-03-12T19:12:53.248Z,17.14
2024-03-12T19:15:34.223Z,17.14
2024-03-12T19:18:12.872Z,17.15
2024-03-12T19:20:46.106Z,17.16
2024-03-12T19:23:19.099Z,17.15
2024-03-12T19:25:53.141Z,17.12
2024-03-12T19:28:26.181Z,17.11
2024-03-12T19:30:59.325Z,17.12
2024-03-12T19:33:34.235Z,17.12
2024-03-12T19:36:07.667Z,17.11
2024-03-12T19:38:40.837Z,17.08
2024-03-12T19:41:16.236Z,17.07
2024-03-12T19:43:50.542Z,17.05
2024-03-12T19:46:23.738Z,17.04
2024-03-12T19:48:58.313Z,17.04
2024-03-12T19:51:31.443Z,17.04
2024-03-12T19:54:06.316Z,17.02
2024-03-12T19:56:40.585Z,17.04
2024-03-12T19:59:16.924Z,17.03
2024-03-12T20:01:50.490Z,17.01
2024-03-12T20:04:23.378Z,17.01
2024-03-12T20:06:56.476Z,17.01
2024-03-12T20:09:30.017Z,17.00
2024-03-12T20:12:05.276Z,17.01
2024-03-12T20:14:38.906Z,16.99
2024-03-12T20:17:11.698Z,16.99
2024-03-12T20:19:44.412Z,16.98
2024-03-12T20:22:17.201Z,16.94
2024-03-12T20:24:50.056Z,16.95
2024-03-12T20:27:24.393Z,16.96
2024-03-12T20:29:57.121Z,16.95
2024-03-12T20:32:30.971Z,16.95
2024-03-12T20:35:03.898Z,16.98
2024-03-12T20:37:36.824Z,16.97
2024-03-12T20:40:12.649Z,16.96
2024-03-12T20:42:49.617Z,16.97
2024-03-12T20:45:22.605Z,16.95
2024-03-12T20:48:00.399Z,16.94
2024-03-12T20:50:34.827Z,16.92
2024-03-12T20:53:08.364Z,16.92
2024-03-12T20:55:41.243Z,16.91
2024-03-12T20:58:15.803Z,16.91
2024-03-12T21:00:48.771Z,16.93
2024-03-12T21:03:22.346Z,16.93
2024-03-12T21:05:55.173Z,16.91
2024-03-12T21:08:28.538Z,16.89
2024-03-12T21:11:01.223Z,16.91
2024-03-12T21:13:36.045Z,16.90
2024-03-12T21:16:10.264Z,16.89
2024-03-12T21:18:44.452Z,16.91
2024-03-12T21:21:17.596Z,16.90
2024-03-12T21:23:50.287Z,16.89
2024-03-12T21:26:25.754Z,16.85
2024-03-12T21:28:59.853Z,16.89
2024-03-12T21:31:32.483Z,16.90
2024-03-12T21:34:07.591Z,16.89
2024-03-12T21:36:41.765Z,16.90
2024-03-12T21:39:15.962Z,16.89
2024-03-12T21:41:48.854Z,16.89
2024-03-12T21:44:23.107Z,16.88
2024-03-12T21:46:56.262Z,16.89
2024-03-12T21:49:29.174Z,16.90
2024-03-12T21:52:01.878Z,16.87
2024-03-12T21:54:34.576Z,16.87
2024-03-12T21:57:08.030Z,16.88
2024-03-12T21:59:42.458Z,16.85
2024-03-12T22:02:15.108Z,16.88
2024-03-12T22:04:47.978Z,16.89
2024-03-12T22:07:21.170Z,16.89
2024-03-12T22:09:54.127Z,16.90
2024-03-12T22:12:27.212Z,16.91
2024-03-12T22:15:01.193Z,16.94
2024-03-12T22:17:33.929Z,16.98
2024-03-12T22:20:07.228Z,16.98
2024-03-12T22:22:40.507Z,16.95
2024-03-12T22:25:15.271Z,16.96
2024-03-12T22:27:48.901Z,16.96
2024-03-12T22:30:23.139Z,16.97
2024-03-12T22:32:55.790Z,16.97
2024-03-12T22:35:29.263Z,17.01
2024-03-12T22:38:03.472Z,17.00
2024-03-12T22:40:38.463Z,17.01
2024-03-12T22:43:11.344Z,17.02
2024-03-12T22:45:46.022Z,17.02
2024-03-12T22:48:19.911Z,17.00
2024-03-12T22:50:53.072Z,17.00
2024-03-12T22:53:26.428Z,17.00
2024-03-12T22:55:59.798Z,16.99
2024-03-12T22:58:33.056Z,17.01
2024-03-12T23:01:09.498Z,17.05
2024-03-12T23:03:42.440Z,17.09
2024-03-12T23:06:15.933Z,17.09
2024-03-12T23:08:49.532Z,17.09
2024-03-12T23:11:26.145Z,17.11
2024-03-12T23:13:58.793Z,17.12
2024-03-12T23:16:34.128Z,17.12
2024-03-12T23:19:07.291Z,17.12
2024-03-12T23:21:40.368Z,17.09
2024-03-12T23:24:14.622Z,17.14
2024-03-12T23:26:48.143Z,17.07
2024-03-12T23:29:21.178Z,17.17
2024-03-12T23:31:56.192Z,17.13
2024-03-12T23:34:28.950Z,17.10
2024-03-12T23:37:04.563Z,17.16
2024-03-12T23:39:38.382Z,17.18
2024-03-12T23:42:11.609Z,17.17
2024-03-12T23:44:46.124Z,17.19
2024-03-12T23:47:20.154Z,17.18
2024-03-12T23:49:52.948Z,17.18
2024-03-12T23:52:25.981Z,17.20
2024-03-12T23:54:58.832Z,17.20
2024-03-12T23:57:33.244Z,17.20
